• Join FlightAware (Why Join?)
  • Login
  • US Flag 
06:32AM EDT


 

Airport Tracker/Info


-or-


 

Live Flight TrackerFlight Track Log ✈ SWA1688 ✈ 15-May-2013 ✈ KMCO - KALB

Flight Track Log - Related Links

Times and Time Zones

All times are in EDT time to prevent confusion due to time zone crossing. See the SWA1688 flight status page for this flight to view local times or setup timezone preferences in your user account.

Time Position Orientation Groundspeed Altitude Reporting Facility
EDT Latitude Longitude Course Direction KTS MPH feet Rate Location/Type
09:40PM 28.4167 -81.3000 156° South 150 173 900  Level Orlando TRACON
09:41PM 28.3833 -81.2833 156° South 182 209 2,900 2,460 Climbing Orlando TRACON
09:42PM 28.3333 -81.2500 150° Southeast 205 236 5,100 2,760 Climbing Orlando TRACON
09:43PM 28.3642 -81.2058 52° Northeast 176 203 10,300 3,360 Climbing Jacksonville Center
09:44PM 28.4417 -81.2283 346° North 198 228 14,100 3,660 Climbing Jacksonville Center
09:45PM 28.5297 -81.2503 348° North 263 303 17,600 3,000 Climbing Jacksonville Center
09:46PM 28.6261 -81.2747 347° North 315 362 20,200 2,700 Climbing Jacksonville Center
09:47PM 28.7328 -81.3039 347° North 358 412 23,100 2,880 Climbing Jacksonville Center
09:48PM 28.8417 -81.3258 350° North 383 441 26,100 2,760 Climbing Jacksonville Center
09:49PM 28.9525 -81.3550 347° North 397 457 28,700 2,460 Climbing Jacksonville Center
09:50PM 29.0656 -81.3842 347° North 408 470 31,100 2,400 Climbing Jacksonville Center
09:51PM 29.1825 -81.3967 355° North 413 475 33,500 2,160 Climbing Jacksonville Center
09:52PM 29.2997 -81.4114 354° North 413 475 35,500 1,860 Climbing Jacksonville Center
09:53PM 29.4147 -81.4217 356° North 413 475 37,300 1,800 Climbing Jacksonville Center
09:54PM 29.5275 -81.4342 354° North 413 475 39,100 1,620 Climbing Jacksonville Center
09:55PM 29.6444 -81.4444 356° North 413 475 40,600 900 Climbing Jacksonville Center
09:56PM 29.7594 -81.4547 356° North 413 475 41,000 180 Climbing Jacksonville Center
09:57PM 29.8744 -81.4650 356° North 408 470 41,000  Level Jacksonville Center
09:58PM 29.9872 -81.4753 355° North 408 470 41,000  Level Jacksonville Center
09:59PM 30.1022 -81.4856 356° North 408 470 41,000  Level Jacksonville Center
10:00PM 30.2150 -81.4958 355° North 408 470 41,000  Level Jacksonville Center
10:01PM 30.3319 -81.5086 355° North 408 470 41,000  Level Jacksonville Center
10:02PM 30.4489 -81.5022 North 408 470 41,000  Level Jacksonville Center
10:03PM 30.5658 -81.4933 North 408 470 41,000  Level Jacksonville Center
10:04PM 30.6806 -81.4844 North 408 470 41,000  Level Jacksonville Center
10:05PM 30.7869 -81.4756 North 414 476 41,000  Level Jacksonville Center
10:06PM 30.9014 -81.4447 13° North 419 482 41,000  Level Jacksonville Center
10:07PM 31.0156 -81.3897 22° Northeast 424 488 41,000  Level Jacksonville Center
10:08PM 31.1233 -81.3297 25° Northeast 424 488 41,000  Level Jacksonville Center
10:09PM 31.2356 -81.2744 23° Northeast 424 488 41,000  Level Jacksonville Center
10:10PM 31.3433 -81.2167 25° Northeast 424 488 41,000  Level Jacksonville Center
10:11PM 31.4636 -81.1511 25° Northeast 424 488 41,000  Level Jacksonville Center
10:12PM 31.5714 -81.0956 24° Northeast 430 495 41,000  Level Jacksonville Center
10:13PM 31.6686 -81.0422 25° Northeast 419 482 41,000  Level Jacksonville Center
10:14PM 31.7889 -80.9811 23° Northeast 419 482 41,000  Level Jacksonville Center
10:15PM 31.8883 -80.9303 23° Northeast 419 482 41,000  Level Jacksonville Center
10:16PM 32.0106 -80.8664 24° Northeast 419 482 41,000  Level Jacksonville Center
10:17PM 32.1222 -80.8075 24° Northeast 424 488 41,000  Level Jacksonville Center
10:18PM 32.2217 -80.7561 24° Northeast 432 497 41,000  Level Jacksonville Center
10:19PM 32.3311 -80.6969 25° Northeast 432 497 41,000  Level Jacksonville Center
10:20PM 32.4428 -80.6353 25° Northeast 432 497 41,000  Level Jacksonville Center
10:21PM 32.5544 -80.5783 23° Northeast 432 497 41,000  Level Jacksonville Center
10:22PM 32.6642 -80.5161 26° Northeast 432 497 41,000  Level Jacksonville Center
10:23PM 32.7756 -80.4589 23° Northeast 432 497 41,000  Level Jacksonville Center
10:24PM 32.8850 -80.3992 25° Northeast 432 497 41,000  Level Jacksonville Center
10:25PM 33.0069 -80.3314 25° Northeast 436 502 41,000  Level Jacksonville Center
10:26PM 33.1225 -80.2733 23° Northeast 436 502 41,000  Level Jacksonville Center
10:27PM 33.2364 -80.2181 22° Northeast 436 502 41,000  Level Jacksonville Center
10:28PM 33.3436 -80.1600 24° Northeast 430 495 41,000  Level Jacksonville Center
10:29PM 33.4528 -80.0994 25° Northeast 430 495 41,000  Level Jacksonville Center
10:30PM 33.5683 -80.0408 23° Northeast 430 495 41,000  Level Jacksonville Center
10:31PM 33.6797 -79.9825 24° Northeast 430 495 41,000  Level Jacksonville Center
10:32PM 33.7931 -79.9211 24° Northeast 435 501 41,000  Level Jacksonville Center
10:33PM 33.9042 -79.8600 25° Northeast 435 501 41,000  Level Jacksonville Center
10:34PM 34.0156 -79.8033 23° Northeast 435 501 41,000  Level Jacksonville Center
10:35PM 34.1267 -79.7392 26° Northeast 435 501 41,000  Level Jacksonville Center
10:37PM 34.3542 -79.6219 23° Northeast 449 517 41,000  Level Washington Center
10:38PM 34.4650 -79.5592 25° Northeast 444 511 41,000  Level Washington Center
10:39PM 34.5753 -79.5017 23° Northeast 434 499 41,000  Level Washington Center
10:40PM 34.6878 -79.4389 25° Northeast 434 499 41,000  Level Washington Center
10:41PM 34.7983 -79.3783 24° Northeast 434 499 41,000  Level Washington Center
10:42PM 34.9131 -79.3153 24° Northeast 434 499 41,000  Level Washington Center
10:43PM 35.0275 -79.2544 24° Northeast 439 505 41,000  Level Washington Center
10:44PM 35.1419 -79.1936 23° Northeast 439 505 41,000  Level Washington Center
10:45PM 35.2417 -79.1397 24° Northeast 439 505 41,000  Level Washington Center
10:46PM 35.3478 -79.0781 25° Northeast 455 524 41,000  Level Washington Center
10:47PM 35.4667 -79.0144 24° Northeast 443 510 41,000  Level Washington Center
10:48PM 35.5789 -78.9528 24° Northeast 438 504 41,000  Level Washington Center
10:49PM 35.6892 -78.8936 24° Northeast 438 504 41,000  Level Washington Center
10:50PM 35.8014 -78.8292 25° Northeast 438 504 41,000  Level Washington Center
10:51PM 35.9075 -78.7592 28° Northeast 432 497 41,000  Level Washington Center
10:52PM 36.0103 -78.6683 36° Northeast 437 503 41,000  Level Washington Center
10:53PM 36.1083 -78.5819 35° Northeast 442 509 41,000  Level Washington Center
10:54PM 36.2086 -78.4881 37° Northeast 442 509 41,000  Level Washington Center
10:55PM 36.3069 -78.3964 37° Northeast 442 509 41,000  Level Washington Center
10:56PM 36.4050 -78.3042 37° Northeast 442 509 41,000  Level Washington Center
10:57PM 36.5031 -78.2122 37° Northeast 442 509 41,000  Level Washington Center
10:58PM 36.6094 -78.1097 38° Northeast 442 509 41,000  Level Washington Center
10:59PM 36.7075 -78.0169 37° Northeast 442 509 41,000  Level Washington Center
11:00PM 36.8053 -77.9239 37° Northeast 442 509 41,000  Level Washington Center
11:01PM 36.8944 -77.8358 38° Northeast 442 509 41,000  Level Washington Center
11:02PM 36.9922 -77.7450 37° Northeast 447 514 41,000  Level Washington Center
11:03PM 37.0919 -77.6489 38° Northeast 442 509 41,000  Level Washington Center
11:05PM 37.1894 -77.5550 37° Northeast 442 509 41,000  Level Washington Center
11:05PM 37.2889 -77.4608 37° Northeast 442 509 41,000  Level Washington Center
11:06PM 37.3883 -77.3639 38° Northeast 442 509 41,000  Level Washington Center
11:07PM 37.4983 -77.2592 37° Northeast 442 509 41,000  Level Washington Center
11:08PM 37.6000 -77.1619 37° Northeast 442 509 41,000  Level Washington Center
11:09PM 37.6969 -77.0642 39° Northeast 447 514 41,000  Level Washington Center
11:10PM 37.7961 -76.9661 38° Northeast 447 514 41,000  Level Washington Center
11:11PM 37.8953 -76.8681 38° Northeast 447 514 41,000  Level Washington Center
11:12PM 37.9964 -76.7694 38° Northeast 447 514 41,000  Level Washington Center
11:13PM 38.0953 -76.6708 38° Northeast 452 520 41,000  Level Washington Center
11:14PM 38.1922 -76.5744 38° Northeast 452 520 41,000  Level Washington Center
11:15PM 38.2908 -76.4728 39° Northeast 452 520 41,000  Level Washington Center
11:16PM 38.3894 -76.3758 38° Northeast 446 513 41,000  Level Washington Center
11:17PM 38.4861 -76.2761 39° Northeast 446 513 41,000  Level Washington Center
11:18PM 38.5847 -76.1786 38° Northeast 446 513 41,000  Level Washington Center
11:19PM 38.6872 -76.0783 37° Northeast 456 525 41,000  Level Washington Center
11:20PM 38.7856 -75.9778 39° Northeast 456 525 41,000  Level Washington Center
11:21PM 38.8858 -75.8769 38° Northeast 450 518 41,000  Level Washington Center
11:22PM 38.9819 -75.7786 38° Northeast 445 512 41,000  Level Washington Center
11:23PM 39.0758 -75.6800 39° Northeast 445 512 41,000  Level Washington Center
11:24PM 39.1739 -75.5836 37° Northeast 440 506 41,000  Level Washington Center
11:26PM 39.2697 -75.4817 39° Northeast 440 506 41,000  Level Washington Center
11:26PM 39.3653 -75.3822 39° Northeast 440 506 41,000  Level Washington Center
11:27PM 39.4611 -75.2825 39° Northeast 440 506 41,000  Level Washington Center
11:28PM 39.5586 -75.1825 38° Northeast 440 506 41,000  Level Washington Center
11:30PM 39.7358 -74.9903 40° Northeast 452 520 41,000  Level New York Center
11:31PM 39.8542 -74.8864 34° Northeast 455 524 41,000  Level New York Center
11:32PM 39.9494 -74.8433 19° North 434 499 41,000  Level New York Center
11:33PM 40.0697 -74.8042 14° North 434 499 41,000  Level New York Center
11:34PM 40.1839 -74.7511 20° North 434 499 41,000  Level New York Center
11:35PM 40.3067 -74.6956 19° North 428 493 41,000  Level New York Center
11:36PM 40.4208 -74.6450 19° North 428 493 41,000  Level New York Center
11:37PM 40.5372 -74.5942 18° North 428 493 41,000 -480 Level New York Center
11:40PM 40.8772 -74.4797 14° North 436 502 39,300 -1,140 Descending Boston Center
11:41PM 41.0031 -74.4422 13° North 411 473 36,400 -2,940 Descending Boston Center
11:42PM 41.1181 -74.4075 13° North 418 481 33,500 -2,100 Descending Boston Center
11:43PM 41.2272 -74.3775 12° North 424 488 32,300 -2,280 Descending Boston Center
11:44PM 41.3633 -74.3319 14° North 447 514 29,000 -2,880 Descending Boston Center
11:45PM 41.4828 -74.2856 16° North 452 520 26,600 -2,100 Descending Boston Center
11:46PM 41.5939 -74.2472 14° North 452 520 24,900 -2,280 Descending Boston Center
11:47PM 41.7114 -74.2031 16° North 447 514 22,100 -3,060 Descending Boston Center
11:48PM 41.8267 -74.1589 16° North 432 497 18,800 -3,060 Descending Boston Center
11:49PM 41.9231 -74.1225 16° North 396 456 16,000 -2,940 Descending Boston Center
11:50PM 42.0008 -74.0911 17° North 359 413 13,800 -2,820 Descending Boston Center
11:50PM 42.0175 -74.0861 13° North 364 419 13,200 -2,760 Descending Boston Center
11:51PM 42.0886 -74.0600 15° North 344 396 11,300 -2,220 Descending Boston Center
11:51PM 42.1222 -74.0467 16° North 352 405 11,000 -300 Descending Boston Center
11:52PM 42.1808 -74.0231 17° North 346 398 11,000 -240 Level Boston Center
11:52PM 42.2125 -74.0069 21° North 347 399 10,800 -840 Descending Boston Center
11:53PM 42.2647 -73.9831 19° North 312 359 10,200 -900 Descending Boston Center
11:53PM 42.2922 -73.9697 20° North 309 356 9,900 -1,620 Descending Boston Center
11:54PM 42.3444 -73.9486 17° North 272 313 8,600 -1,800 Descending Boston Center
11:54PM 42.3633 -73.9350 28° Northeast 287 330 8,100 -2,280 Descending Boston Center
11:55PM 42.4053 -73.9192 16° North 269 310 6,600 -2,640 Descending Boston Center
11:55PM 42.4369 -73.9031 21° North 275 316 5,500 -2,100 Descending Boston Center
11:56PM 42.4767 -73.8869 17° North 272 313 4,500 -1,440 Descending Boston Center
11:56PM 42.5019 -73.8733 22° Northeast 269 310 4,100 -540 Descending Boston Center
11:57PM 42.5500 -73.8519 18° North 253 291 4,000 -540 Descending Boston Center
11:57PM 42.5711 -73.8411 21° North 251 289 3,600 -1,140 Descending Boston Center
11:58PM 42.6108 -73.8253 16° North 231 266 2,900 -1,020 Descending Boston Center
11:58PM 42.6233 -73.8169 26° Northeast 240 276 2,600 -1,140 Descending Boston Center
11:59PM 42.6589 -73.8036 15° North 173 199 1,800 -540 Descending Boston Center
11:59PM 42.6883 -73.7903 18° North 225 259 2,100 -720 Climbing Boston Center
12:00AM 42.6964 -73.8044 308° West 129 148 1,100 -1,620 Descending Boston Center